sensor_id;sensor_type;location;lat;lon;timestamp;pressure;altitude;pressure_sealevel;temperature;humidity
52975;BME280;38839;45.186;5.720;2023-05-19T00:01:14;99333.50;;;13.12;80.87
52975;BME280;38839;45.186;5.720;2023-05-19T00:03:52;99335.25;;;13.12;80.51
52975;BME280;38839;45.186;5.720;2023-05-19T00:06:23;99327.47;;;13.07;80.48
52975;BME280;38839;45.186;5.720;2023-05-19T00:08:59;99331.78;;;13.11;80.51
52975;BME280;38839;45.186;5.720;2023-05-19T00:11:30;99330.03;;;13.13;80.35
52975;BME280;38839;45.186;5.720;2023-05-19T00:14:06;99333.50;;;13.12;79.98
52975;BME280;38839;45.186;5.720;2023-05-19T00:16:37;99324.84;;;13.07;79.93
52975;BME280;38839;45.186;5.720;2023-05-19T00:19:06;99329.19;;;13.09;79.87
52975;BME280;38839;45.186;5.720;2023-05-19T00:21:39;99330.88;;;13.12;79.85
52975;BME280;38839;45.186;5.720;2023-05-19T00:24:11;99329.16;;;13.11;79.86
52975;BME280;38839;45.186;5.720;2023-05-19T00:26:46;99323.94;;;13.11;79.37
52975;BME280;38839;45.186;5.720;2023-05-19T00:29:19;99325.69;;;13.09;79.03
52975;BME280;38839;45.186;5.720;2023-05-19T00:31:54;99319.63;;;13.04;79.07
52975;BME280;38839;45.186;5.720;2023-05-19T00:34:26;99320.53;;;13.00;79.24
52975;BME280;38839;45.186;5.720;2023-05-19T00:37:01;99318.88;;;12.94;79.27
52975;BME280;38839;45.186;5.720;2023-05-19T00:39:33;99325.81;;;12.97;79.31
52975;BME280;38839;45.186;5.720;2023-05-19T00:42:08;99323.19;;;12.97;79.48
52975;BME280;38839;45.186;5.720;2023-05-19T00:44:41;99317.97;;;12.97;79.12
52975;BME280;38839;45.186;5.720;2023-05-19T00:47:14;99317.13;;;12.95;79.21
52975;BME280;38839;45.186;5.720;2023-05-19T00:49:46;99310.16;;;12.92;79.33
52975;BME280;38839;45.186;5.720;2023-05-19T00:52:20;99307.56;;;12.91;79.41
52975;BME280;38839;45.186;5.720;2023-05-19T00:54:54;99303.22;;;12.86;79.46
52975;BME280;38839;45.186;5.720;2023-05-19T00:57:27;99302.38;;;12.84;79.71
52975;BME280;38839;45.186;5.720;2023-05-19T01:00:01;99306.78;;;12.81;79.83
52975;BME280;38839;45.186;5.720;2023-05-19T01:02:30;99309.41;;;12.79;80.09
52975;BME280;38839;45.186;5.720;2023-05-19T01:05:05;99305.91;;;12.80;80.06
52975;BME280;38839;45.186;5.720;2023-05-19T01:07:37;99305.00;;;12.84;79.98
52975;BME280;38839;45.186;5.720;2023-05-19T01:10:10;99310.22;;;12.84;79.96
52975;BME280;38839;45.186;5.720;2023-05-19T01:12:44;99302.41;;;12.81;80.00
52975;BME280;38839;45.186;5.720;2023-05-19T01:15:18;99299.81;;;12.80;80.13
52975;BME280;38839;45.186;5.720;2023-05-19T01:20:40;99298.13;;;12.73;80.95
52975;BME280;38839;45.186;5.720;2023-05-19T01:23:27;99289.41;;;12.74;81.03
52975;BME280;38839;45.186;5.720;2023-05-19T01:28:58;99292.88;;;12.74;81.62
52975;BME280;38839;45.186;5.720;2023-05-19T01:31:29;99285.09;;;12.68;81.58
52975;BME280;38839;45.186;5.720;2023-05-19T01:34:03;99290.31;;;12.68;81.89
52975;BME280;38839;45.186;5.720;2023-05-19T01:36:35;99289.47;;;12.67;82.01
52975;BME280;38839;45.186;5.720;2023-05-19T01:39:08;99289.53;;;12.61;82.51
52975;BME280;38839;45.186;5.720;2023-05-19T01:41:41;99288.63;;;12.64;82.62
52975;BME280;38839;45.186;5.720;2023-05-19T01:44:15;99290.34;;;12.65;82.78
52975;BME280;38839;45.186;5.720;2023-05-19T01:46:48;99286.84;;;12.64;82.95
52975;BME280;38839;45.186;5.720;2023-05-19T01:49:21;99287.78;;;12.59;83.13
52975;BME280;38839;45.186;5.720;2023-05-19T01:51:56;99289.53;;;12.60;83.19
52975;BME280;38839;45.186;5.720;2023-05-19T01:54:29;99285.16;;;12.59;83.27
52975;BME280;38839;45.186;5.720;2023-05-19T02:10:50;99297.44;;;12.54;83.77
52975;BME280;38839;45.186;5.720;2023-05-19T02:13:25;99290.44;;;12.53;83.34
52975;BME280;38839;45.186;5.720;2023-05-19T02:16:02;99286.97;;;12.51;83.11
52975;BME280;38839;45.186;5.720;2023-05-19T02:18:33;99272.16;;;12.50;83.17
52975;BME280;38839;45.186;5.720;2023-05-19T02:21:02;99282.63;;;12.50;83.22
52975;BME280;38839;45.186;5.720;2023-05-19T02:23:33;99281.78;;;12.47;83.17
52975;BME280;38839;45.186;5.720;2023-05-19T02:26:06;99283.53;;;12.45;83.35
52975;BME280;38839;45.186;5.720;2023-05-19T02:28:39;99278.31;;;12.42;83.37
52975;BME280;38839;45.186;5.720;2023-05-19T02:31:13;99280.97;;;12.41;83.63
52975;BME280;38839;45.186;5.720;2023-05-19T02:33:46;99282.75;;;12.37;83.70
52975;BME280;38839;45.186;5.720;2023-05-19T02:36:19;99285.38;;;12.34;83.78
52975;BME280;38839;45.186;5.720;2023-05-19T02:38:54;99283.66;;;12.33;83.80
52975;BME280;38839;45.186;5.720;2023-05-19T02:41:26;99287.13;;;12.32;83.78
52975;BME280;38839;45.186;5.720;2023-05-19T02:43:59;99281.94;;;12.29;83.97
52975;BME280;38839;45.186;5.720;2023-05-19T02:46:33;99275.84;;;12.27;83.96
52975;BME280;38839;45.186;5.720;2023-05-19T02:49:06;99277.63;;;12.25;84.13
52975;BME280;38839;45.186;5.720;2023-05-19T02:51:38;99276.75;;;12.20;84.38
52975;BME280;38839;45.186;5.720;2023-05-19T02:54:13;99275.91;;;12.21;84.31
52975;BME280;38839;45.186;5.720;2023-05-19T02:56:45;99279.38;;;12.21;84.45
52975;BME280;38839;45.186;5.720;2023-05-19T02:59:19;99271.53;;;12.20;84.53
52975;BME280;38839;45.186;5.720;2023-05-19T03:01:56;99278.47;;;12.28;84.42
52975;BME280;38839;45.186;5.720;2023-05-19T03:04:28;99270.56;;;12.33;84.01
52975;BME280;38839;45.186;5.720;2023-05-19T03:06:58;99268.75;;;12.38;84.01
52975;BME280;38839;45.186;5.720;2023-05-19T03:09:32;99268.75;;;12.41;83.73
52975;BME280;38839;45.186;5.720;2023-05-19T03:12:07;99269.66;;;12.37;83.87
52975;BME280;38839;45.186;5.720;2023-05-19T03:14:42;99262.72;;;12.33;84.09
52975;BME280;38839;45.186;5.720;2023-05-19T03:17:14;99261.88;;;12.31;84.23
52975;BME280;38839;45.186;5.720;2023-05-19T03:19:50;99255.78;;;12.26;84.48
52975;BME280;38839;45.186;5.720;2023-05-19T03:22:22;99254.97;;;12.22;84.77
52975;BME280;38839;45.186;5.720;2023-05-19T03:24:57;99259.34;;;12.20;84.93
52975;BME280;38839;45.186;5.720;2023-05-19T03:27:29;99254.13;;;12.19;85.49
52975;BME280;38839;45.186;5.720;2023-05-19T03:30:04;99261.97;;;12.19;85.19
52975;BME280;38839;45.186;5.720;2023-05-19T03:32:37;99259.34;;;12.17;85.60
52975;BME280;38839;45.186;5.720;2023-05-19T03:35:14;99259.34;;;12.16;85.58
52975;BME280;38839;45.186;5.720;2023-05-19T03:37:46;99260.25;;;12.15;85.90
52975;BME280;38839;45.186;5.720;2023-05-19T03:40:22;99264.63;;;12.10;85.89
52975;BME280;38839;45.186;5.720;2023-05-19T03:42:54;99255.06;;;12.08;85.86
52975;BME280;38839;45.186;5.720;2023-05-19T03:45:27;99259.44;;;12.06;85.51
52975;BME280;38839;45.186;5.720;2023-05-19T03:48:00;99262.06;;;12.03;85.82
52975;BME280;38839;45.186;5.720;2023-05-19T03:50:31;99261.25;;;11.97;85.79
52975;BME280;38839;45.186;5.720;2023-05-19T03:53:06;99263.91;;;11.92;86.22
52975;BME280;38839;45.186;5.720;2023-05-19T03:55:39;99265.66;;;11.85;86.52
52975;BME280;38839;45.186;5.720;2023-05-19T03:58:11;99267.38;;;11.86;86.75
52975;BME280;38839;45.186;5.720;2023-05-19T04:00:46;99265.63;;;11.93;87.05
52975;BME280;38839;45.186;5.720;2023-05-19T04:03:17;99268.25;;;11.96;86.76
52975;BME280;38839;45.186;5.720;2023-05-19T04:05:51;99265.63;;;11.95;86.96
52975;BME280;38839;45.186;5.720;2023-05-19T04:08:23;99276.94;;;12.00;87.30
52975;BME280;38839;45.186;5.720;2023-05-19T04:10:59;99273.47;;;11.96;87.58
52975;BME280;38839;45.186;5.720;2023-05-19T04:13:34;99269.94;;;12.00;87.58
52975;BME280;38839;45.186;5.720;2023-05-19T04:16:09;99272.56;;;11.99;87.54
52975;BME280;38839;45.186;5.720;2023-05-19T04:18:40;99272.56;;;11.99;87.73
52975;BME280;38839;45.186;5.720;2023-05-19T04:21:13;99278.69;;;11.98;87.16
52975;BME280;38839;45.186;5.720;2023-05-19T04:23:45;99263.00;;;11.93;87.01
52975;BME280;38839;45.186;5.720;2023-05-19T04:26:18;99267.34;;;11.97;86.84
52975;BME280;38839;45.186;5.720;2023-05-19T04:28:48;99270.00;;;11.96;86.81
52975;BME280;38839;45.186;5.720;2023-05-19T04:31:23;99275.22;;;11.96;86.48
52975;BME280;38839;45.186;5.720;2023-05-19T04:33:54;99273.47;;;11.93;86.15
52975;BME280;38839;45.186;5.720;2023-05-19T04:36:26;99276.06;;;11.96;85.75
52975;BME280;38839;45.186;5.720;2023-05-19T04:38:59;99273.47;;;11.96;85.83
52975;BME280;38839;45.186;5.720;2023-05-19T04:41:35;99265.66;;;11.92;86.46
52975;BME280;38839;45.186;5.720;2023-05-19T04:44:08;99264.78;;;11.88;86.66
52975;BME280;38839;45.186;5.720;2023-05-19T04:46:43;99268.28;;;11.90;86.87
52975;BME280;38839;45.186;5.720;2023-05-19T04:49:15;99270.84;;;11.93;86.98
52975;BME280;38839;45.186;5.720;2023-05-19T04:51:50;99267.38;;;11.94;87.28
52975;BME280;38839;45.186;5.720;2023-05-19T04:54:21;99272.56;;;11.97;87.34
52975;BME280;38839;45.186;5.720;2023-05-19T04:56:55;99268.19;;;12.02;87.07
52975;BME280;38839;45.186;5.720;2023-05-19T04:59:29;99276.00;;;12.08;86.57
52975;BME280;38839;45.186;5.720;2023-05-19T05:02:02;99277.72;;;12.11;86.81
52975;BME280;38839;45.186;5.720;2023-05-19T05:04:34;99282.03;;;12.14;86.52
52975;BME280;38839;45.186;5.720;2023-05-19T05:07:09;99276.81;;;12.17;86.25
52975;BME280;38839;45.186;5.720;2023-05-19T05:09:42;99274.22;;;12.11;86.27
52975;BME280;38839;45.186;5.720;2023-05-19T05:12:17;99279.44;;;12.14;86.24
52975;BME280;38839;45.186;5.720;2023-05-19T05:14:50;99288.16;;;12.13;86.60
52975;BME280;38839;45.186;5.720;2023-05-19T05:17:24;99275.91;;;12.22;86.59
52975;BME280;38839;45.186;5.720;2023-05-19T05:19:57;99283.69;;;12.27;86.04
52975;BME280;38839;45.186;5.720;2023-05-19T05:22:31;99277.56;;;12.33;85.61
52975;BME280;38839;45.186;5.720;2023-05-19T05:25:03;99283.56;;;12.42;85.16
52975;BME280;38839;45.186;5.720;2023-05-19T05:27:36;99280.81;;;12.59;84.49
52975;BME280;38839;45.186;5.720;2023-05-19T05:30:09;99280.47;;;12.93;83.37
52975;BME280;38839;45.186;5.720;2023-05-19T05:32:41;99276.72;;;13.16;81.91
52975;BME280;38839;45.186;5.720;2023-05-19T05:35:13;99278.31;;;13.31;80.89
52975;BME280;38839;45.186;5.720;2023-05-19T05:37:49;99283.47;;;13.37;80.57
52975;BME280;38839;45.186;5.720;2023-05-19T05:40:22;99279.00;;;13.46;79.98
52975;BME280;38839;45.186;5.720;2023-05-19T05:42:54;99273.16;;;13.91;78.30
52975;BME280;38839;45.186;5.720;2023-05-19T05:45:25;99267.91;;;13.91;77.36
52975;BME280;38839;45.186;5.720;2023-05-19T05:47:54;99270.47;;;14.50;75.49
52975;BME280;38839;45.186;5.720;2023-05-19T05:50:24;99268.69;;;14.51;75.20
52975;BME280;38839;45.186;5.720;2023-05-19T05:52:55;99270.22;;;15.12;73.35
52975;BME280;38839;45.186;5.720;2023-05-19T05:55:25;99267.09;;;16.88;67.92
52975;BME280;38839;45.186;5.720;2023-05-19T05:57:59;99266.50;;;17.08;65.81
52975;BME280;38839;45.186;5.720;2023-05-19T06:00:37;99270.03;;;16.74;66.44
52975;BME280;38839;45.186;5.720;2023-05-19T06:03:17;99256.47;;;16.21;67.88
52975;BME280;38839;45.186;5.720;2023-05-19T06:05:49;99265.84;;;15.95;68.99
52975;BME280;38839;45.186;5.720;2023-05-19T06:08:21;99266.81;;;17.60;64.57
52975;BME280;38839;45.186;5.720;2023-05-19T06:10:53;99259.63;;;20.16;56.91
52975;BME280;38839;45.186;5.720;2023-05-19T06:13:26;99257.19;;;18.94;58.45
52975;BME280;38839;45.186;5.720;2023-05-19T06:16:00;99253.31;;;17.69;61.87
52975;BME280;38839;45.186;5.720;2023-05-19T06:18:32;99261.81;;;17.49;62.93
52975;BME280;38839;45.186;5.720;2023-05-19T06:21:07;99260.28;;;18.01;62.09
52975;BME280;38839;45.186;5.720;2023-05-19T06:23:39;99262.53;;;18.40;61.02
52975;BME280;38839;45.186;5.720;2023-05-19T06:26:14;99259.59;;;19.48;58.04
52975;BME280;38839;45.186;5.720;2023-05-19T06:28:46;99252.06;;;20.07;56.03
52975;BME280;38839;45.186;5.720;2023-05-19T06:31:21;99248.09;;;21.21;51.95
52975;BME280;38839;45.186;5.720;2023-05-19T06:33:54;99243.34;;;21.28;51.45
52975;BME280;38839;45.186;5.720;2023-05-19T06:36:29;99254.38;;;20.37;53.73
52975;BME280;38839;45.186;5.720;2023-05-19T06:39:02;99249.69;;;19.99;54.74
52975;BME280;38839;45.186;5.720;2023-05-19T06:41:34;99249.66;;;20.23;54.39
52975;BME280;38839;45.186;5.720;2023-05-19T06:44:07;99245.59;;;20.98;52.69
52975;BME280;38839;45.186;5.720;2023-05-19T06:46:40;99237.25;;;21.46;51.32
52975;BME280;38839;45.186;5.720;2023-05-19T06:49:14;99237.59;;;21.77;50.61
52975;BME280;38839;45.186;5.720;2023-05-19T06:51:48;99235.84;;;21.76;50.05
52975;BME280;38839;45.186;5.720;2023-05-19T06:54:21;99231.84;;;19.82;54.31
52975;BME280;38839;45.186;5.720;2023-05-19T06:56:54;99236.84;;;18.70;57.50
52975;BME280;38839;45.186;5.720;2023-05-19T06:59:29;99236.34;;;18.59;58.74
52975;BME280;38839;45.186;5.720;2023-05-19T07:02:03;99235.59;;;19.06;57.61
52975;BME280;38839;45.186;5.720;2023-05-19T07:04:37;99239.81;;;18.86;57.47
52975;BME280;38839;45.186;5.720;2023-05-19T07:07:12;99237.59;;;19.70;55.76
52975;BME280;38839;45.186;5.720;2023-05-19T07:09:43;99227.66;;;19.77;55.02
52975;BME280;38839;45.186;5.720;2023-05-19T07:12:18;99229.59;;;19.26;56.89
52975;BME280;38839;45.186;5.720;2023-05-19T07:14:48;99235.84;;;19.00;56.78
52975;BME280;38839;45.186;5.720;2023-05-19T07:17:23;99225.84;;;19.55;55.69
52975;BME280;38839;45.186;5.720;2023-05-19T07:19:57;99221.88;;;20.11;53.74
52975;BME280;38839;45.186;5.720;2023-05-19T07:22:31;99227.22;;;20.09;53.65
52975;BME280;38839;45.186;5.720;2023-05-19T07:25:04;99223.75;;;19.40;55.11
52975;BME280;38839;45.186;5.720;2023-05-19T07:27:35;99237.53;;;19.01;56.23
52975;BME280;38839;45.186;5.720;2023-05-19T07:30:09;99228.94;;;19.43;55.28
52975;BME280;38839;45.186;5.720;2023-05-19T07:32:43;99225.56;;;20.49;52.33
52975;BME280;38839;45.186;5.720;2023-05-19T07:35:16;99222.22;;;20.24;52.93
52975;BME280;38839;45.186;5.720;2023-05-19T07:37:50;99227.16;;;19.67;54.24
52975;BME280;38839;45.186;5.720;2023-05-19T07:40:22;99223.03;;;19.58;54.23
52975;BME280;38839;45.186;5.720;2023-05-19T07:42:57;99235.94;;;19.44;53.72
52975;BME280;38839;45.186;5.720;2023-05-19T07:45:30;99225.06;;;19.97;52.71
52975;BME280;38839;45.186;5.720;2023-05-19T07:48:03;99221.44;;;19.78;53.07
52975;BME280;38839;45.186;5.720;2023-05-19T07:50:34;99228.63;;;20.61;51.46
52975;BME280;38839;45.186;5.720;2023-05-19T07:53:07;99221.31;;;20.45;51.92
52975;BME280;38839;45.186;5.720;2023-05-19T07:55:40;99213.75;;;19.94;52.59
52975;BME280;38839;45.186;5.720;2023-05-19T07:58:14;99214.38;;;19.78;52.71
52975;BME280;38839;45.186;5.720;2023-05-19T08:00:47;99205.47;;;19.57;53.57
52975;BME280;38839;45.186;5.720;2023-05-19T08:03:20;99214.09;;;18.92;55.19
52975;BME280;38839;45.186;5.720;2023-05-19T08:05:52;99213.91;;;18.71;55.67
52975;BME280;38839;45.186;5.720;2023-05-19T08:08:24;99206.25;;;18.63;56.30
52975;BME280;38839;45.186;5.720;2023-05-19T08:11:02;99204.50;;;18.37;56.92
52975;BME280;38839;45.186;5.720;2023-05-19T08:13:30;99208.03;;;18.38;57.08
52975;BME280;38839;45.186;5.720;2023-05-19T08:16:03;99202.97;;;18.32;56.92
52975;BME280;38839;45.186;5.720;2023-05-19T08:18:36;99206.88;;;18.20;57.10
52975;BME280;38839;45.186;5.720;2023-05-19T08:21:08;99201.78;;;18.14;57.43
52975;BME280;38839;45.186;5.720;2023-05-19T08:23:43;99200.78;;;17.91;57.91
52975;BME280;38839;45.186;5.720;2023-05-19T08:26:15;99198.91;;;17.95;58.00
52975;BME280;38839;45.186;5.720;2023-05-19T08:28:48;99192.22;;;17.83;58.27
52975;BME280;38839;45.186;5.720;2023-05-19T08:31:22;99192.00;;;17.61;58.82
52975;BME280;38839;45.186;5.720;2023-05-19T08:33:56;99192.88;;;17.61;58.90
52975;BME280;38839;45.186;5.720;2023-05-19T08:36:29;99183.28;;;17.59;58.85
52975;BME280;38839;45.186;5.720;2023-05-19T08:39:02;99183.63;;;17.48;59.44
52975;BME280;38839;45.186;5.720;2023-05-19T08:41:33;99191.53;;;17.48;59.64
52975;BME280;38839;45.186;5.720;2023-05-19T08:44:08;99185.19;;;17.25;60.34
52975;BME280;38839;45.186;5.720;2023-05-19T08:46:40;99186.06;;;17.24;60.24
52975;BME280;38839;45.186;5.720;2023-05-19T08:49:13;99183.31;;;17.29;59.90
52975;BME280;38839;45.186;5.720;2023-05-19T08:54:26;99186.84;;;17.58;59.28
52975;BME280;38839;45.186;5.720;2023-05-19T08:56:59;99187.25;;;17.44;59.45
52975;BME280;38839;45.186;5.720;2023-05-19T08:59:32;99181.63;;;17.56;59.32
52975;BME280;38839;45.186;5.720;2023-05-19T09:02:05;99180.84;;;17.81;58.92
52975;BME280;38839;45.186;5.720;2023-05-19T09:04:34;99191.72;;;17.98;58.39
52975;BME280;38839;45.186;5.720;2023-05-19T09:07:05;99182.19;;;17.94;58.53
52975;BME280;38839;45.186;5.720;2023-05-19T09:09:37;99176.09;;;17.92;58.51
52975;BME280;38839;45.186;5.720;2023-05-19T09:12:10;99172.91;;;17.81;58.43
52975;BME280;38839;45.186;5.720;2023-05-19T09:14:44;99167.88;;;18.28;57.44
52975;BME280;38839;45.186;5.720;2023-05-19T09:17:15;99168.84;;;18.50;56.67
52975;BME280;38839;45.186;5.720;2023-05-19T09:19:45;99170.88;;;18.67;56.22
52975;BME280;38839;45.186;5.720;2023-05-19T09:22:16;99166.78;;;18.84;55.75
52975;BME280;38839;45.186;5.720;2023-05-19T09:24:47;99162.78;;;18.97;55.30
52975;BME280;38839;45.186;5.720;2023-05-19T09:27:22;99162.81;;;19.19;54.31
52975;BME280;38839;45.186;5.720;2023-05-19T09:29:57;99169.00;;;19.42;53.39
52975;BME280;38839;45.186;5.720;2023-05-19T09:32:35;99159.06;;;19.70;52.46
52975;BME280;38839;45.186;5.720;2023-05-19T09:35:07;99162.66;;;19.92;52.10
52975;BME280;38839;45.186;5.720;2023-05-19T09:37:41;99162.03;;;19.85;51.42
52975;BME280;38839;45.186;5.720;2023-05-19T09:40:13;99167.06;;;19.23;52.35
52975;BME280;38839;45.186;5.720;2023-05-19T09:42:45;99165.31;;;19.46;52.28
52975;BME280;38839;45.186;5.720;2023-05-19T09:45:20;99154.69;;;19.47;51.84
52975;BME280;38839;45.186;5.720;2023-05-19T09:47:50;99150.78;;;19.56;51.00
52975;BME280;38839;45.186;5.720;2023-05-19T09:50:22;99153.59;;;19.29;51.73
52975;BME280;38839;45.186;5.720;2023-05-19T09:52:55;99149.50;;;19.22;52.12
52975;BME280;38839;45.186;5.720;2023-05-19T09:55:32;99147.72;;;19.45;50.96
52975;BME280;38839;45.186;5.720;2023-05-19T09:58:04;99144.72;;;19.54;50.62
52975;BME280;38839;45.186;5.720;2023-05-19T10:00:36;99148.44;;;19.26;50.57
52975;BME280;38839;45.186;5.720;2023-05-19T10:03:07;99143.44;;;19.42;50.14
52975;BME280;38839;45.186;5.720;2023-05-19T10:05:39;99149.09;;;19.55;49.84
52975;BME280;38839;45.186;5.720;2023-05-19T10:08:11;99143.81;;;19.32;50.01
52975;BME280;38839;45.186;5.720;2023-05-19T10:10:40;99132.72;;;19.45;49.74
52975;BME280;38839;45.186;5.720;2023-05-19T10:13:12;99148.81;;;18.94;50.33
52975;BME280;38839;45.186;5.720;2023-05-19T10:15:44;99143.06;;;18.82;50.09
52975;BME280;38839;45.186;5.720;2023-05-19T10:18:17;99135.47;;;18.97;49.78
52975;BME280;38839;45.186;5.720;2023-05-19T10:20:50;99137.94;;;19.25;49.10
52975;BME280;38839;45.186;5.720;2023-05-19T10:23:21;99134.91;;;19.12;49.49
52975;BME280;38839;45.186;5.720;2023-05-19T10:25:57;99148.22;;;19.09;49.45
52975;BME280;38839;45.186;5.720;2023-05-19T10:28:32;99136.59;;;19.13;49.58
52975;BME280;38839;45.186;5.720;2023-05-19T10:31:05;99133.38;;;18.83;49.84
52975;BME280;38839;45.186;5.720;2023-05-19T10:36:41;99143.75;;;18.37;51.55
52975;BME280;38839;45.186;5.720;2023-05-19T10:39:33;99137.13;;;18.50;51.31
52975;BME280;38839;45.186;5.720;2023-05-19T10:42:22;99134.09;;;18.86;50.97
52975;BME280;38839;45.186;5.720;2023-05-19T10:45:12;99134.09;;;18.86;50.93
52975;BME280;38839;45.186;5.720;2023-05-19T10:47:46;99129.44;;;18.68;50.91
52975;BME280;38839;45.186;5.720;2023-05-19T10:50:19;99124.41;;;19.09;50.20
52975;BME280;38839;45.186;5.720;2023-05-19T10:52:55;99122.00;;;19.26;49.48
52975;BME280;38839;45.186;5.720;2023-05-19T10:55:44;99122.56;;;19.35;49.12
52975;BME280;38839;45.186;5.720;2023-05-19T10:58:15;99126.19;;;19.54;48.73
52975;BME280;38839;45.186;5.720;2023-05-19T11:01:11;99115.50;;;19.79;47.69
52975;BME280;38839;45.186;5.720;2023-05-19T11:03:54;99112.41;;;19.90;47.86
52975;BME280;38839;45.186;5.720;2023-05-19T11:06:26;99114.13;;;20.12;47.66
52975;BME280;38839;45.186;5.720;2023-05-19T11:09:00;99106.66;;;20.01;48.11
52975;BME280;38839;45.186;5.720;2023-05-19T11:11:52;99105.38;;;19.89;48.04
52975;BME280;38839;45.186;5.720;2023-05-19T11:14:26;99109.69;;;19.69;48.44
52975;BME280;38839;45.186;5.720;2023-05-19T11:16:58;99097.38;;;19.90;48.28
52975;BME280;38839;45.186;5.720;2023-05-19T11:19:35;99095.91;;;19.61;48.56
52975;BME280;38839;45.186;5.720;2023-05-19T11:22:11;99108.09;;;19.65;48.37
52975;BME280;38839;45.186;5.720;2023-05-19T11:24:45;99109.56;;;19.28;48.91
52975;BME280;38839;45.186;5.720;2023-05-19T11:29:58;99106.75;;;19.55;48.74
52975;BME280;38839;45.186;5.720;2023-05-19T11:32:31;99110.44;;;19.51;48.81
52975;BME280;38839;45.186;5.720;2023-05-19T11:35:01;99103.19;;;19.34;49.48
52975;BME280;38839;45.186;5.720;2023-05-19T11:37:33;99101.84;;;19.24;49.73
52975;BME280;38839;45.186;5.720;2023-05-19T11:40:04;99090.81;;;19.13;49.70
52975;BME280;38839;45.186;5.720;2023-05-19T11:42:35;99091.66;;;19.13;50.23
52975;BME280;38839;45.186;5.720;2023-05-19T11:45:07;99090.47;;;18.98;50.01
52975;BME280;38839;45.186;5.720;2023-05-19T11:47:38;99090.47;;;18.75;50.75
52975;BME280;38839;45.186;5.720;2023-05-19T11:50:10;99091.31;;;18.75;51.15
52975;BME280;38839;45.186;5.720;2023-05-19T11:52:43;99101.00;;;19.00;50.58
52975;BME280;38839;45.186;5.720;2023-05-19T11:55:18;99088.69;;;18.75;51.07
52975;BME280;38839;45.186;5.720;2023-05-19T11:57:59;99095.41;;;18.60;51.00
52975;BME280;38839;45.186;5.720;2023-05-19T12:00:34;99094.03;;;18.50;51.57
52975;BME280;38839;45.186;5.720;2023-05-19T12:03:05;99085.63;;;18.62;51.24
52975;BME280;38839;45.186;5.720;2023-05-19T12:05:44;99084.19;;;18.77;51.25
52975;BME280;38839;45.186;5.720;2023-05-19T12:08:17;99085.09;;;18.76;51.24
52975;BME280;38839;45.186;5.720;2023-05-19T12:10:49;99085.47;;;18.67;51.52
52975;BME280;38839;45.186;5.720;2023-05-19T12:13:21;99083.16;;;18.58;51.75
52975;BME280;38839;45.186;5.720;2023-05-19T12:15:58;99078.16;;;18.50;51.68
52975;BME280;38839;45.186;5.720;2023-05-19T12:18:36;99085.47;;;18.67;51.90
52975;BME280;38839;45.186;5.720;2023-05-19T12:21:11;99087.31;;;18.65;51.69
52975;BME280;38839;45.186;5.720;2023-05-19T12:23:44;99075.00;;;18.64;51.78
52975;BME280;38839;45.186;5.720;2023-05-19T12:26:21;99068.94;;;18.85;51.33
52975;BME280;38839;45.186;5.720;2023-05-19T12:28:57;99068.22;;;19.04;50.73
52975;BME280;38839;45.186;5.720;2023-05-19T12:31:31;99063.56;;;19.10;50.82
52975;BME280;38839;45.186;5.720;2023-05-19T12:34:04;99064.91;;;19.43;50.31
52975;BME280;38839;45.186;5.720;2023-05-19T12:36:32;99066.38;;;19.50;50.02
52975;BME280;38839;45.186;5.720;2023-05-19T12:39:03;99070.34;;;19.60;49.86
52975;BME280;38839;45.186;5.720;2023-05-19T12:41:34;99055.03;;;19.68;49.13
52975;BME280;38839;45.186;5.720;2023-05-19T12:44:13;99065.75;;;19.65;49.22
52975;BME280;38839;45.186;5.720;2023-05-19T12:46:42;99070.44;;;19.59;49.89
52975;BME280;38839;45.186;5.720;2023-05-19T12:49:14;99057.28;;;19.57;49.55
52975;BME280;38839;45.186;5.720;2023-05-19T12:51:52;99059.22;;;19.52;49.67
52975;BME280;38839;45.186;5.720;2023-05-19T12:54:22;99050.44;;;19.52;49.71
52975;BME280;38839;45.186;5.720;2023-05-19T12:56:52;99058.19;;;19.78;49.10
52975;BME280;38839;45.186;5.720;2023-05-19T12:59:23;99052.44;;;19.89;49.41
52975;BME280;38839;45.186;5.720;2023-05-19T13:01:59;99056.88;;;20.09;48.91
52975;BME280;38839;45.186;5.720;2023-05-19T13:04:32;99048.47;;;19.99;49.01
52975;BME280;38839;45.186;5.720;2023-05-19T13:07:03;99045.63;;;20.04;48.95
52975;BME280;38839;45.186;5.720;2023-05-19T13:09:35;99053.38;;;19.88;49.00
52975;BME280;38839;45.186;5.720;2023-05-19T13:12:07;99050.25;;;19.56;49.90
52975;BME280;38839;45.186;5.720;2023-05-19T13:14:39;99040.06;;;19.25;50.22
52975;BME280;38839;45.186;5.720;2023-05-19T13:17:13;99042.47;;;19.31;49.95
52975;BME280;38839;45.186;5.720;2023-05-19T13:19:46;99046.25;;;19.46;49.84
52975;BME280;38839;45.186;5.720;2023-05-19T13:22:19;99049.25;;;19.38;49.99
52975;BME280;38839;45.186;5.720;2023-05-19T13:24:54;99037.88;;;19.36;49.74
52975;BME280;38839;45.186;5.720;2023-05-19T13:27:28;99028.19;;;19.35;49.86
52975;BME280;38839;45.186;5.720;2023-05-19T13:30:02;99042.66;;;19.26;50.37
52975;BME280;38839;45.186;5.720;2023-05-19T13:32:32;99035.63;;;19.25;50.20
52975;BME280;38839;45.186;5.720;2023-05-19T13:35:04;99027.94;;;19.41;49.86
52975;BME280;38839;45.186;5.720;2023-05-19T13:37:35;99030.22;;;19.50;49.76
52975;BME280;38839;45.186;5.720;2023-05-19T13:40:07;99015.19;;;19.51;49.60
52975;BME280;38839;45.186;5.720;2023-05-19T13:42:35;99015.94;;;19.55;49.62
52975;BME280;38839;45.186;5.720;2023-05-19T13:45:09;99014.22;;;19.32;49.95
52975;BME280;38839;45.186;5.720;2023-05-19T13:47:40;99006.22;;;19.33;50.22
52975;BME280;38839;45.186;5.720;2023-05-19T13:50:15;99014.44;;;19.47;49.83
52975;BME280;38839;45.186;5.720;2023-05-19T13:52:47;99012.47;;;19.32;50.26
52975;BME280;38839;45.186;5.720;2023-05-19T13:55:19;99003.00;;;19.47;50.27
52975;BME280;38839;45.186;5.720;2023-05-19T13:57:53;98997.22;;;19.59;49.65
52975;BME280;38839;45.186;5.720;2023-05-19T14:00:26;99006.66;;;19.44;50.53